Time;durP1;ratioP1;P1;durP2;ratioP2;P2;SDS_P1;SDS_P2;PMS_P1;PMS_P2;Temp;Humidity;BMP_temperature;BMP_pressure;BME280_temperature;BME280_humidity;BME280_pressure;Samples;Min_cycle;Max_cycle;Signal;HPM_P1;HPM_P2
2022/01/27 00:02:12;;;;;;;36.17;17.70;;;2.40;99.90;;;;;;5082939;28;20228;-87
2022/01/27 00:04:49;;;;;;;42.00;16.08;;;2.20;99.90;;;;;;5083125;28;20189;-87
2022/01/27 00:07:16;;;;;;;41.60;19.02;;;2.10;99.90;;;;;;5080640;28;20228;-88
2022/01/27 00:09:49;;;;;;;37.35;17.48;;;2.20;99.90;;;;;;5083467;28;20276;-87
2022/01/27 00:12:18;;;;;;;41.22;17.65;;;2.30;99.90;;;;;;5090176;28;20252;-87
2022/01/27 00:14:52;;;;;;;38.35;16.20;;;2.40;99.90;;;;;;5092391;28;20231;-86
2022/01/27 00:17:28;;;;;;;34.92;17.58;;;2.30;99.90;;;;;;5097212;28;20188;-87
2022/01/27 00:19:54;;;;;;;38.97;18.50;;;2.30;99.90;;;;;;5091631;28;20229;-88
2022/01/27 00:22:21;;;;;;;37.90;17.52;;;2.50;99.90;;;;;;5081885;28;20302;-87
2022/01/27 00:24:50;;;;;;;35.40;18.55;;;2.40;99.90;;;;;;5080186;28;20280;-87
2022/01/27 00:27:17;;;;;;;41.50;19.25;;;2.50;99.90;;;;;;5080275;28;20221;-87
2022/01/27 00:29:43;;;;;;;40.35;18.80;;;2.00;99.90;;;;;;5079417;28;20300;-86
2022/01/27 00:32:10;;;;;;;42.97;19.25;;;2.40;99.90;;;;;;5080004;28;20233;-86
2022/01/27 00:34:37;;;;;;;40.75;18.15;;;2.60;99.90;;;;;;5081852;28;20280;-87
2022/01/27 00:37:04;;;;;;;38.53;18.23;;;2.80;99.90;;;;;;5081795;28;20669;-87
2022/01/27 00:39:31;;;;;;;39.67;19.65;;;2.50;99.90;;;;;;5081453;28;20211;-86
2022/01/27 00:41:59;;;;;;;47.10;19.35;;;2.30;99.90;;;;;;5080855;28;20229;-88
2022/01/27 00:44:28;;;;;;;37.53;17.45;;;2.70;99.90;;;;;;5080799;28;20205;-86
2022/01/27 00:46:55;;;;;;;41.53;19.48;;;2.80;99.90;;;;;;5085097;28;20256;-86
2022/01/27 00:49:22;;;;;;;40.00;16.45;;;2.50;99.90;;;;;;5090511;28;20208;-87
2022/01/27 00:51:49;;;;;;;43.35;20.48;;;2.40;99.90;;;;;;5081246;28;20229;-87
2022/01/27 00:54:19;;;;;;;48.15;20.85;;;2.50;99.90;;;;;;5080714;28;20240;-86
2022/01/27 00:56:52;;;;;;;39.53;18.30;;;2.70;99.90;;;;;;5080772;28;20280;-86
2022/01/27 00:59:35;;;;;;;39.78;19.45;;;2.60;99.90;;;;;;5084353;28;20190;-87
2022/01/27 01:02:11;;;;;;;41.75;20.08;;;2.70;99.90;;;;;;5097373;28;20284;-86
2022/01/27 01:04:42;;;;;;;42.08;18.27;;;2.50;99.90;;;;;;5091100;28;20197;-87
2022/01/27 01:07:10;;;;;;;42.33;18.00;;;2.50;99.90;;;;;;5083796;28;20667;-87
2022/01/27 01:15:13;;;;;;;41.97;17.15;;;2.20;99.90;;;;;;5083711;28;20283;-87
2022/01/27 01:17:56;;;;;;;42.55;16.98;;;2.10;99.90;;;;;;5078833;28;20195;-87
2022/01/27 01:20:47;;;;;;;46.03;18.83;;;2.00;99.90;;;;;;5078769;28;20205;-87
2022/01/27 01:31:47;;;;;;;47.97;21.33;;;2.10;99.90;;;;;;5085008;28;20225;-87
2022/01/27 01:34:18;;;;;;;42.88;19.58;;;2.00;99.90;;;;;;5077945;28;20193;-87
2022/01/27 01:36:55;;;;;;;38.47;19.25;;;2.00;99.90;;;;;;5078180;28;20276;-86
2022/01/27 01:39:24;;;;;;;47.33;19.80;;;1.90;99.90;;;;;;5083323;28;20265;-86
2022/01/27 01:41:51;;;;;;;43.42;20.98;;;1.80;99.90;;;;;;5093413;28;20235;-85
2022/01/27 01:44:18;;;;;;;45.30;21.33;;;1.40;99.90;;;;;;5081217;28;20212;-87
2022/01/27 01:46:47;;;;;;;42.47;19.92;;;1.90;99.90;;;;;;5079379;28;20363;-87
2022/01/27 01:49:14;;;;;;;42.15;18.73;;;2.00;99.90;;;;;;5078342;28;20213;-88
2022/01/27 01:51:43;;;;;;;46.22;20.58;;;1.90;99.90;;;;;;5078803;28;20692;-86
2022/01/27 01:54:11;;;;;;;34.53;17.13;;;1.80;99.90;;;;;;5078680;28;20620;-88
2022/01/27 01:56:39;;;;;;;36.13;17.88;;;2.00;99.90;;;;;;5078430;28;20235;-86
2022/01/27 01:59:06;;;;;;;36.33;17.38;;;2.10;99.90;;;;;;5079112;28;20210;-87
2022/01/27 02:01:33;;;;;;;37.33;16.98;;;2.00;99.90;;;;;;5078034;28;20233;-86
2022/01/27 02:04:06;;;;;;;35.97;18.25;;;2.30;99.90;;;;;;5079630;28;20234;-86
2022/01/27 02:06:35;;;;;;;38.97;18.75;;;2.00;99.90;;;;;;5077802;28;20213;-86
2022/01/27 02:09:15;;;;;;;41.10;19.65;;;2.70;99.90;;;;;;5080053;28;20204;-87
2022/01/27 02:19:58;;;;;;;46.10;19.13;;;2.40;99.90;;;;;;5079148;28;20612;-86
2022/01/27 02:22:26;;;;;;;36.05;16.98;;;2.00;99.90;;;;;;5078459;28;20314;-88
2022/01/27 02:24:53;;;;;;;33.58;17.48;;;2.50;99.90;;;;;;5088289;28;20229;-87
2022/01/27 02:27:21;;;;;;;34.70;16.88;;;2.60;99.90;;;;;;5089987;28;20239;-86
2022/01/27 02:29:49;;;;;;;32.13;16.83;;;2.90;99.90;;;;;;5081761;28;20292;-85
2022/01/27 02:32:17;;;;;;;39.72;18.65;;;3.00;99.90;;;;;;5078338;28;20228;-86
2022/01/27 02:34:44;;;;;;;36.30;18.33;;;2.80;99.90;;;;;;5078332;28;20219;-87
2022/01/27 02:37:13;;;;;;;35.45;16.38;;;2.90;99.90;;;;;;5087679;28;20205;-88
2022/01/27 02:39:40;;;;;;;29.70;16.40;;;2.60;99.90;;;;;;5082137;28;20641;-87
2022/01/27 02:42:15;;;;;;;32.72;17.45;;;2.70;99.90;;;;;;5081619;28;20258;-88
2022/01/27 02:44:52;;;;;;;33.40;16.60;;;3.10;99.90;;;;;;5079327;28;20198;-87
2022/01/27 02:47:20;;;;;;;34.08;16.38;;;2.90;99.90;;;;;;5078252;28;20209;-87
2022/01/27 02:49:47;;;;;;;30.95;15.65;;;3.10;99.90;;;;;;5079569;28;20205;-87
2022/01/27 02:52:16;;;;;;;30.33;15.07;;;2.60;99.90;;;;;;5078065;28;20619;-89
2022/01/27 02:54:43;;;;;;;31.33;16.60;;;3.20;99.90;;;;;;5078406;28;20212;-87
2022/01/27 02:57:10;;;;;;;36.08;16.15;;;2.90;99.90;;;;;;5087454;28;20208;-86
2022/01/27 02:59:37;;;;;;;36.33;17.73;;;2.70;99.90;;;;;;5085288;28;20208;-87
2022/01/27 03:02:04;;;;;;;32.88;15.82;;;2.70;99.90;;;;;;5080659;28;20221;-85
2022/01/27 03:04:34;;;;;;;29.05;16.15;;;2.60;99.90;;;;;;5081821;28;20205;-85
2022/01/27 03:07:03;;;;;;;37.17;17.30;;;1.90;99.90;;;;;;5094136;28;20231;-85
2022/01/27 03:09:32;;;;;;;33.15;16.98;;;2.40;99.90;;;;;;5086189;28;20255;-88
2022/01/27 03:12:01;;;;;;;25.63;14.02;;;2.50;99.90;;;;;;5085491;28;20246;-87
2022/01/27 03:14:29;;;;;;;36.20;18.40;;;2.50;99.90;;;;;;5076886;28;20272;-86
2022/01/27 03:16:59;;;;;;;29.02;12.68;;;2.40;99.90;;;;;;5077033;28;20197;-86
2022/01/27 03:19:26;;;;;;;25.92;12.82;;;2.40;99.90;;;;;;5076460;28;20209;-85
2022/01/27 03:21:53;;;;;;;34.10;15.85;;;2.40;99.90;;;;;;5076443;28;20228;-88
2022/01/27 03:24:20;;;;;;;25.90;9.38;;;2.20;99.90;;;;;;5076575;28;20212;-86
2022/01/27 03:26:49;;;;;;;29.23;15.48;;;1.80;99.90;;;;;;5076967;28;20225;-86
2022/01/27 03:29:17;;;;;;;28.23;14.70;;;2.50;99.90;;;;;;5077250;28;20193;-87
2022/01/27 03:31:44;;;;;;;32.10;16.83;;;2.00;99.90;;;;;;5082312;28;20229;-85
2022/01/27 03:34:11;;;;;;;29.00;16.33;;;2.30;99.90;;;;;;5080814;28;20253;-85
2022/01/27 03:36:38;;;;;;;24.85;15.02;;;2.50;99.90;;;;;;5082692;28;20201;-87
2022/01/27 03:39:07;;;;;;;24.55;14.38;;;2.20;99.90;;;;;;5077310;28;20198;-87
2022/01/27 03:41:36;;;;;;;29.02;13.95;;;2.80;99.90;;;;;;5076916;28;20299;-86
2022/01/27 03:44:06;;;;;;;29.80;14.43;;;2.60;99.90;;;;;;5076770;28;20213;-87
2022/01/27 03:46:33;;;;;;;28.60;15.77;;;2.30;99.90;;;;;;5076859;28;20229;-88
2022/01/27 03:49:00;;;;;;;30.65;15.13;;;1.80;99.90;;;;;;5080607;28;20303;-85
2022/01/27 03:51:27;;;;;;;29.85;15.43;;;2.30;99.90;;;;;;5083323;28;20255;-86
2022/01/27 03:53:54;;;;;;;27.30;16.02;;;2.60;99.90;;;;;;5080613;28;20225;-87
2022/01/27 03:56:21;;;;;;;32.50;15.43;;;2.60;99.90;;;;;;5076309;28;20235;-87
2022/01/27 03:58:48;;;;;;;29.25;14.82;;;2.20;99.90;;;;;;5076091;28;20232;-88
2022/01/27 04:01:16;;;;;;;26.85;15.55;;;2.60;99.90;;;;;;5079539;28;20249;-87
2022/01/27 04:03:44;;;;;;;30.52;15.35;;;2.40;99.90;;;;;;5085500;28;20212;-87
2022/01/27 04:06:14;;;;;;;25.88;14.52;;;2.30;99.90;;;;;;5083433;28;20213;-87
2022/01/27 04:08:41;;;;;;;31.13;15.95;;;2.30;99.90;;;;;;5087896;28;20188;-87
2022/01/27 04:11:09;;;;;;;32.60;16.15;;;2.20;99.90;;;;;;5089694;28;20233;-86
2022/01/27 04:13:37;;;;;;;30.00;16.50;;;2.20;99.90;;;;;;5110763;22;20275;-88
2022/01/27 04:16:04;;;;;;;31.35;16.85;;;2.00;99.90;;;;;;5095385;28;20208;-88
2022/01/27 04:18:33;;;;;;;26.08;14.95;;;2.30;99.90;;;;;;5092485;28;20193;-88
2022/01/27 04:21:00;;;;;;;25.02;13.90;;;2.40;99.90;;;;;;5086014;28;20292;-88
2022/01/27 04:23:27;;;;;;;27.42;14.50;;;2.60;99.90;;;;;;5089450;28;20224;-88
2022/01/27 04:25:54;;;;;;;33.05;16.20;;;2.50;99.90;;;;;;5092490;28;20224;-87
2022/01/27 04:28:25;;;;;;;26.35;14.70;;;2.60;99.90;;;;;;5091340;28;20253;-88
2022/01/27 04:30:54;;;;;;;28.73;15.55;;;2.40;99.90;;;;;;5087692;28;20193;-87
2022/01/27 04:33:24;;;;;;;30.15;15.23;;;2.40;99.90;;;;;;5085221;28;20713;-88
2022/01/27 04:35:56;;;;;;;31.75;17.30;;;2.20;99.90;;;;;;5085216;28;20233;-88
2022/01/27 04:38:30;;;;;;;28.35;15.93;;;2.40;99.90;;;;;;5087050;28;20196;-87
2022/01/27 04:41:05;;;;;;;28.88;16.13;;;2.20;99.90;;;;;;5095612;28;20206;-87
2022/01/27 04:43:39;;;;;;;27.35;15.25;;;2.20;99.90;;;;;;5088275;28;20228;-87
2022/01/27 04:46:15;;;;;;;31.10;16.83;;;2.70;99.90;;;;;;5083802;28;20704;-87
2022/01/27 04:48:47;;;;;;;34.15;17.70;;;2.70;99.90;;;;;;5083995;28;20538;-87
2022/01/27 04:51:18;;;;;;;27.08;15.00;;;2.40;99.90;;;;;;5084862;28;20273;-88
2022/01/27 04:53:50;;;;;;;31.38;17.15;;;2.50;99.90;;;;;;5095853;28;20236;-86
2022/01/27 04:56:19;;;;;;;36.88;18.45;;;2.70;99.90;;;;;;5087894;28;20198;-87
2022/01/27 04:58:48;;;;;;;26.73;15.00;;;3.00;99.90;;;;;;5082760;28;20219;-87
2022/01/27 05:01:17;;;;;;;31.40;15.35;;;3.10;99.90;;;;;;5085282;28;20207;-87
2022/01/27 05:03:48;;;;;;;25.95;14.77;;;2.80;99.90;;;;;;5082550;28;20267;-87
2022/01/27 05:06:16;;;;;;;29.33;15.05;;;2.80;99.90;;;;;;5084123;28;20237;-87
2022/01/27 05:08:43;;;;;;;27.88;15.50;;;2.40;99.90;;;;;;5082343;28;20228;-87
2022/01/27 05:11:15;;;;;;;27.73;13.18;;;2.70;99.90;;;;;;5087153;28;20201;-87
2022/01/27 05:13:51;;;;;;;30.73;15.85;;;2.70;99.90;;;;;;5084528;28;20237;-87
2022/01/27 05:16:17;;;;;;;31.30;17.42;;;2.60;99.90;;;;;;5083150;28;20239;-87
2022/01/27 05:18:44;;;;;;;31.05;17.00;;;2.50;99.90;;;;;;5082694;28;20236;-87
2022/01/27 05:21:11;;;;;;;33.60;18.60;;;2.40;99.90;;;;;;5083390;28;20216;-87
2022/01/27 05:23:40;;;;;;;32.78;18.52;;;2.60;99.90;;;;;;5091334;28;20240;-87
2022/01/27 05:26:06;;;;;;;30.70;17.30;;;2.60;99.90;;;;;;5086334;28;20210;-87
2022/01/27 05:28:33;;;;;;;28.52;16.83;;;2.50;99.90;;;;;;5081012;28;20641;-87
2022/01/27 05:31:01;;;;;;;32.90;18.73;;;2.50;99.90;;;;;;5080303;28;20263;-87
2022/01/27 05:33:28;;;;;;;36.45;19.50;;;2.70;99.90;;;;;;5081662;28;20244;-87
2022/01/27 05:35:55;;;;;;;35.30;19.10;;;2.90;99.90;;;;;;5081232;28;20738;-87
2022/01/27 05:38:22;;;;;;;35.47;18.83;;;2.70;99.90;;;;;;5081605;28;20268;-87
2022/01/27 05:40:50;;;;;;;35.50;19.83;;;2.80;99.90;;;;;;5082564;28;20214;-88
2022/01/27 05:43:18;;;;;;;33.55;19.88;;;2.80;99.90;;;;;;5082260;28;20221;-87
2022/01/27 05:45:45;;;;;;;38.42;21.65;;;2.60;99.90;;;;;;5082794;28;20212;-88
2022/01/27 05:48:12;;;;;;;37.97;21.10;;;2.40;99.90;;;;;;5082055;28;20337;-88
2022/01/27 05:50:39;;;;;;;41.83;21.50;;;2.50;99.90;;;;;;5081981;28;20556;-86
2022/01/27 05:53:05;;;;;;;34.15;20.00;;;2.30;99.90;;;;;;5081155;28;20225;-87
2022/01/27 05:55:32;;;;;;;37.28;18.23;;;2.30;99.90;;;;;;5083630;28;20301;-85
2022/01/27 05:58:00;;;;;;;39.13;21.85;;;2.50;99.90;;;;;;5092249;28;20268;-88
2022/01/27 06:00:28;;;;;;;37.53;20.75;;;2.80;99.90;;;;;;5083377;28;20736;-87
2022/01/27 06:02:55;;;;;;;30.08;17.25;;;2.50;99.90;;;;;;5088709;28;20300;-87
2022/01/27 06:05:22;;;;;;;31.55;18.60;;;2.50;99.90;;;;;;5088534;28;20659;-87
2022/01/27 06:07:49;;;;;;;34.05;19.05;;;2.70;99.90;;;;;;5088273;28;20229;-87
2022/01/27 06:10:16;;;;;;;32.88;15.30;;;2.30;99.90;;;;;;5083038;28;20209;-87
2022/01/27 06:12:48;;;;;;;36.38;18.98;;;2.60;99.90;;;;;;5082933;28;20718;-87
2022/01/27 06:15:16;;;;;;;33.92;19.83;;;2.80;99.90;;;;;;5082332;28;20248;-86
2022/01/27 06:17:43;;;;;;;33.78;18.48;;;2.70;99.90;;;;;;5082367;28;20288;-86
2022/01/27 06:20:11;;;;;;;34.85;18.65;;;2.40;99.90;;;;;;5086233;28;20224;-86
2022/01/27 06:22:38;;;;;;;40.08;20.45;;;2.60;99.90;;;;;;5086729;28;20232;-88
2022/01/27 06:25:06;;;;;;;32.15;18.23;;;2.60;99.90;;;;;;5082166;28;20200;-87
2022/01/27 06:27:33;;;;;;;30.50;17.45;;;2.50;99.90;;;;;;5082868;28;20254;-87
2022/01/27 06:30:00;;;;;;;37.67;20.13;;;2.60;99.90;;;;;;5082191;28;20277;-87
2022/01/27 06:32:28;;;;;;;34.90;19.40;;;2.40;99.90;;;;;;5083969;28;20253;-87
2022/01/27 06:34:55;;;;;;;32.88;18.63;;;2.30;99.90;;;;;;5084389;28;20219;-87
2022/01/27 06:37:22;;;;;;;38.45;20.45;;;2.70;99.90;;;;;;5086272;28;20228;-88
2022/01/27 06:39:49;;;;;;;33.83;19.10;;;2.40;99.90;;;;;;5084440;28;20237;-87
2022/01/27 06:42:19;;;;;;;33.63;18.85;;;2.40;99.90;;;;;;5082408;28;20219;-87
2022/01/27 06:44:46;;;;;;;28.55;17.45;;;2.70;99.90;;;;;;5088618;28;20227;-86
2022/01/27 06:47:13;;;;;;;32.15;18.75;;;2.50;99.90;;;;;;5091973;28;20206;-87
2022/01/27 06:49:41;;;;;;;31.83;17.10;;;2.70;99.90;;;;;;5091030;28;20205;-87
2022/01/27 06:52:08;;;;;;;33.30;17.77;;;2.60;99.90;;;;;;5095866;28;20229;-86
2022/01/27 06:54:35;;;;;;;31.90;15.65;;;2.40;99.90;;;;;;5095020;28;20236;-87
2022/01/27 06:57:02;;;;;;;35.47;19.23;;;2.60;99.90;;;;;;5095096;28;20255;-86
2022/01/27 06:59:29;;;;;;;36.88;19.02;;;2.50;99.90;;;;;;5093904;28;20209;-87
2022/01/27 07:01:56;;;;;;;32.28;18.35;;;2.50;99.90;;;;;;5091729;28;20623;-87
2022/01/27 07:04:23;;;;;;;35.70;19.55;;;2.50;99.90;;;;;;5091078;28;20268;-87
2022/01/27 07:06:52;;;;;;;31.65;19.73;;;2.60;99.90;;;;;;5092555;28;20201;-87
2022/01/27 07:09:19;;;;;;;34.38;17.83;;;2.60;99.90;;;;;;5092060;28;20225;-87
2022/01/27 07:11:46;;;;;;;28.27;15.50;;;2.70;99.90;;;;;;5090844;28;20220;-86
2022/01/27 07:14:13;;;;;;;31.42;16.80;;;2.60;99.90;;;;;;5086631;28;20265;-87
2022/01/27 07:16:42;;;;;;;32.22;16.90;;;2.40;99.90;;;;;;5084722;28;20237;-87
2022/01/27 07:19:09;;;;;;;29.67;16.75;;;2.20;99.90;;;;;;5091446;28;20670;-86
2022/01/27 07:21:36;;;;;;;31.75;16.08;;;2.50;99.90;;;;;;5094459;28;20193;-86
2022/01/27 07:24:05;;;;;;;31.65;16.45;;;2.40;99.90;;;;;;5088692;28;20220;-87
2022/01/27 07:26:32;;;;;;;32.45;16.75;;;2.00;99.90;;;;;;5086483;28;20358;-86
2022/01/27 07:28:59;;;;;;;29.30;15.30;;;2.00;99.90;;;;;;5084879;28;20229;-88
2022/01/27 07:31:26;;;;;;;27.13;15.73;;;2.20;99.90;;;;;;5092796;28;20211;-88
2022/01/27 07:33:54;;;;;;;27.83;14.00;;;2.40;99.90;;;;;;5086834;28;20294;-88
2022/01/27 07:36:21;;;;;;;32.25;16.00;;;2.10;99.90;;;;;;5083853;28;20217;-88
2022/01/27 07:38:49;;;;;;;29.40;14.80;;;2.00;99.90;;;;;;5085025;28;20200;-87
2022/01/27 07:41:18;;;;;;;26.98;13.90;;;2.20;99.90;;;;;;5086307;28;20243;-87
2022/01/27 07:43:45;;;;;;;25.65;12.30;;;2.30;99.90;;;;;;5089673;28;20248;-87
2022/01/27 07:46:13;;;;;;;30.92;15.30;;;2.00;99.90;;;;;;5087542;28;20209;-87
2022/01/27 07:48:40;;;;;;;17.45;8.38;;;1.90;99.90;;;;;;5085739;28;20279;-87
2022/01/27 07:51:07;;;;;;;33.25;15.02;;;2.00;99.90;;;;;;5085165;28;20219;-87
2022/01/27 07:53:35;;;;;;;27.75;13.02;;;2.20;99.90;;;;;;5094727;28;20231;-87
2022/01/27 07:56:03;;;;;;;36.08;14.95;;;2.20;99.90;;;;;;5092663;28;20229;-86
2022/01/27 07:58:32;;;;;;;30.13;14.10;;;2.30;99.90;;;;;;5093982;28;20668;-87
2022/01/27 08:01:00;;;;;;;30.92;13.60;;;2.10;99.90;;;;;;5085182;28;20641;-87
2022/01/27 08:03:27;;;;;;;34.67;15.75;;;2.20;99.90;;;;;;5086448;28;20243;-87
2022/01/27 08:05:54;;;;;;;39.53;15.82;;;2.10;99.90;;;;;;5086641;28;20194;-86
2022/01/27 08:08:21;;;;;;;17.63;8.27;;;2.00;99.90;;;;;;5085627;28;20308;-88
2022/01/27 08:10:48;;;;;;;31.10;14.73;;;1.80;99.90;;;;;;5088740;28;20201;-86
2022/01/27 08:13:15;;;;;;;33.25;15.68;;;1.80;99.90;;;;;;5086170;28;20621;-86
2022/01/27 08:15:46;;;;;;;21.23;9.80;;;1.60;99.90;;;;;;5087994;28;20269;-88
2022/01/27 08:18:13;;;;;;;25.73;13.80;;;1.60;99.90;;;;;;5089528;28;20198;-88
2022/01/27 08:20:40;;;;;;;31.60;15.10;;;1.70;99.90;;;;;;5086046;28;20224;-87
2022/01/27 08:23:07;;;;;;;33.45;14.77;;;2.10;99.90;;;;;;5085335;28;20232;-87
2022/01/27 08:25:35;;;;;;;41.10;16.58;;;1.90;99.90;;;;;;5084410;28;20232;-87
2022/01/27 08:28:05;;;;;;;31.67;16.08;;;1.90;99.90;;;;;;5083972;28;20697;-87
2022/01/27 08:30:40;;;;;;;32.08;15.10;;;1.70;99.90;;;;;;5085436;28;20259;-86
2022/01/27 08:33:14;;;;;;;30.42;12.00;;;1.80;99.90;;;;;;5085261;28;20240;-88
2022/01/27 08:35:41;;;;;;;33.92;14.07;;;2.10;99.90;;;;;;5085571;28;20228;-86
2022/01/27 08:38:08;;;;;;;35.17;15.50;;;2.10;99.90;;;;;;5096076;28;20241;-86
2022/01/27 08:40:36;;;;;;;38.58;18.02;;;2.10;99.90;;;;;;5091063;28;20208;-87
2022/01/27 08:43:03;;;;;;;35.33;17.17;;;2.00;99.90;;;;;;5085636;28;20235;-87
2022/01/27 08:45:30;;;;;;;35.47;17.42;;;2.10;99.90;;;;;;5084497;28;20223;-87
2022/01/27 08:47:59;;;;;;;23.02;10.55;;;1.80;99.90;;;;;;5088074;28;20297;-87
2022/01/27 08:50:28;;;;;;;31.95;16.55;;;2.10;99.90;;;;;;5085241;28;20654;-87
2022/01/27 08:52:55;;;;;;;33.78;16.73;;;1.90;99.90;;;;;;5084629;28;20232;-87
2022/01/27 08:55:22;;;;;;;38.38;17.92;;;2.10;99.90;;;;;;5085429;28;20215;-86
2022/01/27 08:57:49;;;;;;;34.35;17.35;;;1.70;99.90;;;;;;5084335;28;20272;-86
2022/01/27 09:00:19;;;;;;;36.50;16.98;;;2.10;99.90;;;;;;5084443;28;20214;-86
2022/01/27 09:02:46;;;;;;;36.97;16.13;;;2.10;99.90;;;;;;5084040;28;20240;-86
2022/01/27 09:05:14;;;;;;;38.33;16.48;;;2.30;99.90;;;;;;5083499;28;20211;-87
2022/01/27 09:07:42;;;;;;;32.58;15.95;;;2.30;99.90;;;;;;5083149;28;20205;-88
2022/01/27 09:10:10;;;;;;;35.10;14.38;;;2.10;99.90;;;;;;5083519;28;20233;-86
2022/01/27 09:12:38;;;;;;;32.88;17.25;;;2.30;99.90;;;;;;5084202;28;20247;-87
2022/01/27 09:15:05;;;;;;;31.27;15.35;;;2.20;99.90;;;;;;5084972;28;20204;-87
2022/01/27 09:17:39;;;;;;;29.35;15.75;;;2.30;99.90;;;;;;5095566;28;20209;-86
2022/01/27 09:20:09;;;;;;;34.75;15.85;;;2.20;99.90;;;;;;5091763;28;20192;-88
2022/01/27 09:22:36;;;;;;;32.38;16.20;;;2.40;99.90;;;;;;5085024;28;20644;-86
2022/01/27 09:25:13;;;;;;;34.22;16.27;;;2.50;99.90;;;;;;5089732;28;20209;-86
2022/01/27 09:27:42;;;;;;;31.48;17.77;;;2.60;99.90;;;;;;5086682;28;20189;-88
2022/01/27 09:30:10;;;;;;;31.25;14.13;;;2.60;99.90;;;;;;5084389;28;20618;-88
2022/01/27 09:32:37;;;;;;;27.42;13.90;;;2.50;99.90;;;;;;5083242;28;20313;-88
2022/01/27 09:35:05;;;;;;;26.90;13.70;;;2.70;99.90;;;;;;5083360;28;20617;-87
2022/01/27 09:37:32;;;;;;;28.00;12.35;;;2.70;99.90;;;;;;5083344;28;20263;-88
2022/01/27 09:39:59;;;;;;;24.13;11.25;;;2.60;99.90;;;;;;5091678;28;20208;-86
2022/01/27 09:42:30;;;;;;;25.70;12.05;;;2.30;99.90;;;;;;5084262;28;20240;-88
2022/01/27 09:45:02;;;;;;;23.20;11.35;;;3.00;99.90;;;;;;5083818;28;20193;-87
2022/01/27 09:47:32;;;;;;;24.83;12.18;;;3.20;99.90;;;;;;5084772;28;20197;-87
2022/01/27 09:50:22;;;;;;;25.58;11.50;;;2.90;99.90;;;;;;5084207;28;20239;-86
2022/01/27 09:52:49;;;;;;;21.48;11.65;;;3.10;99.90;;;;;;5084001;28;20309;-87
2022/01/27 09:55:17;;;;;;;22.08;12.50;;;3.10;99.90;;;;;;5086559;28;20272;-87
2022/01/27 09:57:46;;;;;;;22.80;11.10;;;3.20;99.90;;;;;;5091385;28;20244;-87
2022/01/27 10:00:14;;;;;;;23.48;11.38;;;3.20;99.90;;;;;;5083975;28;20209;-86
2022/01/27 10:03:01;;;;;;;21.27;11.77;;;3.40;99.90;;;;;;5081056;28;20248;-85
2022/01/27 10:05:28;;;;;;;20.15;10.65;;;3.30;99.90;;;;;;5085989;28;20188;-87
2022/01/27 10:08:02;;;;;;;20.35;10.38;;;3.10;99.90;;;;;;5083826;28;20228;-87
2022/01/27 10:10:29;;;;;;;22.77;11.88;;;3.40;99.90;;;;;;5084825;28;20186;-86
2022/01/27 11:10:54;;;;;;;20.52;10.98;;;4.10;99.90;;;;;;4854324;29;20219;-84
2022/01/27 11:18:50;;;;;;;20.85;10.20;;;4.20;99.90;;;;;;5495835;22;20243;-85
2022/01/27 11:41:16;;;;;;;;;;;;;;;;;;;;;
2022/01/27 11:44:13;;;;;;;17.73;9.88;;;4.60;99.90;;;;;;4978015;28;20282;-86
2022/01/27 12:57:10;;;;;;;19.38;11.02;;;5.00;99.90;;;;;;4831487;29;20234;-85
2022/01/27 13:28:09;;;;;;;19.75;10.55;;;5.60;99.90;;;;;;4933184;28;20216;-84
2022/01/27 13:30:44;;;;;;;23.90;11.50;;;5.70;99.90;;;;;;5001076;28;20246;-84
2022/01/27 13:33:55;;;;;;;18.65;10.25;;;5.80;99.90;;;;;;5040648;28;20589;-85
2022/01/27 13:53:16;;;;;;;20.25;9.70;;;5.70;99.90;;;;;;4899762;28;20277;-83
2022/01/27 13:59:35;;;;;;;19.40;10.80;;;5.80;99.90;;;;;;5023096;28;20246;-85
2022/01/27 14:09:35;;;;;;;18.98;10.68;;;5.70;99.90;;;;;;4979902;28;20220;-84
2022/01/27 14:21:45;;;;;;;16.02;9.32;;;6.50;99.90;;;;;;4930174;28;20337;-85
2022/01/27 14:31:13;;;;;;;15.25;8.00;;;6.40;99.90;;;;;;4946319;28;20216;-83
2022/01/27 14:40:19;;;;;;;15.57;8.55;;;6.50;99.90;;;;;;4991922;28;20220;-85
2022/01/27 14:43:03;;;;;;;16.13;8.82;;;6.60;99.90;;;;;;4999937;28;20295;-85
2022/01/27 14:45:40;;;;;;;14.10;8.30;;;6.60;99.90;;;;;;5000503;28;20234;-84
2022/01/27 14:48:20;;;;;;;16.60;8.20;;;6.60;99.90;;;;;;5000985;28;20196;-84
2022/01/27 14:51:10;;;;;;;14.25;7.28;;;6.60;99.90;;;;;;5002021;28;20204;-84
2022/01/27 14:53:46;;;;;;;16.88;9.57;;;6.60;99.90;;;;;;5000472;28;20240;-84
2022/01/27 14:56:16;;;;;;;13.95;7.20;;;6.60;99.90;;;;;;4999751;28;20260;-84
2022/01/27 15:06:00;;;;;;;17.42;8.43;;;6.60;99.90;;;;;;4811441;29;20218;-84
2022/01/27 15:13:09;;;;;;;;;;;;;;;;;;;;;
2022/01/27 15:41:31;;;;;;;;;;;;;;;;;;;;;
2022/01/27 16:05:19;;;;;;;18.30;10.20;;;6.10;99.90;;;;;;4889718;29;20239;-84
2022/01/27 16:14:55;;;;;;;18.13;9.10;;;5.90;99.90;;;;;;5070858;22;20238;-88
2022/01/27 16:17:23;;;;;;;19.45;10.07;;;5.70;99.90;;;;;;5045120;28;20297;-85
2022/01/27 16:19:52;;;;;;;17.70;10.50;;;5.70;99.90;;;;;;5051380;28;20210;-86
2022/01/27 16:22:20;;;;;;;22.52;11.80;;;5.90;99.90;;;;;;5044829;28;20210;-86
2022/01/27 16:24:48;;;;;;;18.38;10.05;;;5.90;99.90;;;;;;5042474;28;20249;-87
2022/01/27 16:27:16;;;;;;;16.95;10.20;;;6.00;99.90;;;;;;5042520;28;20239;-86
2022/01/27 16:29:43;;;;;;;20.95;11.35;;;6.10;99.90;;;;;;5044013;28;20203;-86
2022/01/27 16:32:10;;;;;;;22.83;11.70;;;6.00;99.90;;;;;;5043134;28;20279;-86
2022/01/27 16:34:37;;;;;;;24.67;10.63;;;5.90;99.90;;;;;;5043941;28;20317;-86
2022/01/27 16:37:06;;;;;;;19.98;11.30;;;5.60;99.90;;;;;;5049370;28;20234;-87
2022/01/27 16:39:33;;;;;;;18.67;10.57;;;5.80;99.90;;;;;;5043110;28;20223;-86
2022/01/27 16:41:59;;;;;;;18.67;10.13;;;5.40;99.90;;;;;;5042645;28;20256;-86
2022/01/27 16:44:29;;;;;;;17.77;11.43;;;5.60;99.90;;;;;;5046792;28;20288;-88
2022/01/27 16:46:56;;;;;;;18.02;10.90;;;5.90;99.90;;;;;;5052663;28;20274;-87
2022/01/27 16:49:23;;;;;;;15.50;10.45;;;5.50;99.90;;;;;;5045102;28;20214;-86
2022/01/27 16:51:50;;;;;;;16.60;10.20;;;5.40;99.90;;;;;;5044090;28;20210;-86
2022/01/27 16:54:18;;;;;;;18.80;11.43;;;5.80;99.90;;;;;;5041968;28;20298;-87
2022/01/27 16:56:45;;;;;;;18.00;11.30;;;5.90;99.90;;;;;;5041749;28;20217;-87
2022/01/27 16:59:11;;;;;;;16.55;11.00;;;5.80;99.90;;;;;;5047149;28;20321;-88
2022/01/27 17:01:38;;;;;;;20.70;12.60;;;5.50;99.90;;;;;;5043873;28;20661;-88
2022/01/27 17:04:07;;;;;;;22.08;12.70;;;6.00;99.90;;;;;;5046496;28;20305;-88
2022/01/27 17:06:37;;;;;;;18.10;11.60;;;6.00;99.90;;;;;;5047548;28;20232;-87
2022/01/27 17:09:05;;;;;;;20.60;11.50;;;5.70;99.90;;;;;;5043147;28;20214;-87
2022/01/27 17:11:38;;;;;;;17.20;11.27;;;5.70;99.90;;;;;;5045144;28;20250;-87
2022/01/27 17:14:05;;;;;;;23.00;11.63;;;5.80;99.90;;;;;;5042480;28;20234;-88
2022/01/27 17:16:32;;;;;;;21.00;12.38;;;5.90;99.90;;;;;;5041226;28;20212;-87
2022/01/27 17:18:59;;;;;;;20.25;12.40;;;6.00;99.90;;;;;;5041662;28;20650;-86
2022/01/27 17:21:26;;;;;;;15.32;9.65;;;5.60;99.90;;;;;;5042275;28;20233;-87
2022/01/27 17:23:53;;;;;;;22.08;11.55;;;6.00;99.90;;;;;;5039511;28;20223;-87
2022/01/27 17:26:21;;;;;;;19.75;11.77;;;5.90;99.90;;;;;;5042549;28;20229;-85
2022/01/27 17:28:49;;;;;;;18.90;10.68;;;6.00;99.90;;;;;;5044655;28;20278;-89
2022/01/27 17:31:16;;;;;;;18.73;9.77;;;5.60;99.90;;;;;;5042310;28;20393;-87
2022/01/27 17:33:43;;;;;;;18.00;10.88;;;5.60;99.90;;;;;;5048847;28;20610;-89
2022/01/27 17:36:11;;;;;;;18.20;9.80;;;5.90;99.90;;;;;;5049502;28;20233;-88
2022/01/27 17:38:38;;;;;;;20.55;11.40;;;6.30;99.90;;;;;;5049459;28;20282;-89
2022/01/27 17:41:11;;;;;;;25.92;11.68;;;5.60;99.90;;;;;;5045918;28;20230;-88
2022/01/27 17:43:44;;;;;;;16.70;11.07;;;6.20;99.90;;;;;;5052123;28;20230;-87
2022/01/27 17:46:14;;;;;;;17.13;10.00;;;6.10;99.90;;;;;;5057528;28;20195;-87
2022/01/27 17:48:41;;;;;;;19.35;10.18;;;6.20;99.90;;;;;;5056887;28;20194;-87
2022/01/27 17:51:08;;;;;;;17.67;11.05;;;6.10;99.90;;;;;;5042145;28;20206;-86
2022/01/27 17:53:37;;;;;;;14.13;9.00;;;5.70;99.90;;;;;;5040255;28;20231;-88
2022/01/27 17:56:05;;;;;;;17.58;9.98;;;6.10;99.90;;;;;;5039963;28;20351;-86
2022/01/27 17:58:32;;;;;;;17.15;10.30;;;6.10;99.90;;;;;;5041554;28;20214;-88
2022/01/27 18:00:59;;;;;;;17.65;9.70;;;6.00;99.90;;;;;;5049323;28;20277;-87
2022/01/27 18:03:28;;;;;;;18.45;10.70;;;6.10;99.90;;;;;;5043652;28;20203;-87
2022/01/27 18:05:57;;;;;;;16.73;10.00;;;6.20;99.90;;;;;;5039255;28;20203;-87
2022/01/27 18:08:24;;;;;;;16.65;10.27;;;6.00;99.90;;;;;;5039504;28;20264;-86
2022/01/27 18:10:51;;;;;;;18.42;10.43;;;6.20;99.90;;;;;;5039853;28;20207;-86
2022/01/27 18:13:18;;;;;;;20.20;10.60;;;6.10;99.90;;;;;;5038701;28;20202;-85